createdAt,value
2023-05-14T00:01:00.386Z,20.58
2023-05-14T00:06:05.600Z,20.45
2023-05-14T00:11:09.239Z,20.40
2023-05-14T00:16:12.986Z,20.33
2023-05-14T00:21:18.296Z,20.24
2023-05-14T00:26:21.713Z,20.06
2023-05-14T00:31:25.423Z,19.98
2023-05-14T00:36:31.169Z,20.12
2023-05-14T00:41:34.672Z,20.00
2023-05-14T00:46:38.350Z,19.80
2023-05-14T00:51:46.751Z,19.79
2023-05-14T00:56:51.890Z,19.91
2023-05-14T01:01:55.625Z,19.95
2023-05-14T01:07:09.278Z,20.10
2023-05-14T01:12:18.960Z,20.15
2023-05-14T01:17:23.275Z,20.24
2023-05-14T01:22:28.012Z,20.18
2023-05-14T01:27:36.860Z,20.24
2023-05-14T01:32:40.860Z,20.17
2023-05-14T01:37:46.806Z,20.07
2023-05-14T01:42:52.197Z,20.10
2023-05-14T01:47:55.868Z,20.01
2023-05-14T01:53:00.972Z,19.49
2023-05-14T01:58:04.512Z,19.40
2023-05-14T02:03:08.170Z,19.32
2023-05-14T02:08:13.017Z,19.27
2023-05-14T02:13:16.553Z,19.21
2023-05-14T02:18:20.289Z,19.34
2023-05-14T02:23:34.043Z,19.48
2023-05-14T02:28:37.864Z,19.64
2023-05-14T02:33:41.337Z,19.53
2023-05-14T02:38:46.407Z,19.38
2023-05-14T02:43:50.026Z,19.07
2023-05-14T02:48:53.482Z,19.16
2023-05-14T02:53:58.838Z,19.18
2023-05-14T02:59:02.451Z,19.10
2023-05-14T03:04:06.596Z,19.03
2023-05-14T03:09:11.363Z,18.95
2023-05-14T03:14:14.809Z,18.79
2023-05-14T03:19:18.180Z,18.87
2023-05-14T03:24:22.985Z,18.66
2023-05-14T03:29:26.668Z,18.72
2023-05-14T03:34:30.086Z,18.72
2023-05-14T03:39:35.032Z,18.50
2023-05-14T03:44:41.482Z,18.55
2023-05-14T03:49:45.012Z,18.55
2023-05-14T03:54:51.480Z,18.50
2023-05-14T03:59:54.846Z,18.33
2023-05-14T04:04:58.239Z,18.44
2023-05-14T04:10:04.721Z,18.35
2023-05-14T04:15:10.440Z,18.35
2023-05-14T04:20:13.963Z,18.55
2023-05-14T04:25:19.344Z,18.71
2023-05-14T04:30:23.035Z,18.75
2023-05-14T04:35:26.583Z,18.86
2023-05-14T04:40:31.874Z,18.98
2023-05-14T04:45:35.444Z,19.18
2023-05-14T04:50:38.816Z,19.34
2023-05-14T04:55:43.507Z,19.40
2023-05-14T05:00:47.209Z,19.11
2023-05-14T05:05:50.878Z,19.60
2023-05-14T05:10:55.780Z,19.66
2023-05-14T05:15:59.629Z,20.49
2023-05-14T05:21:03.060Z,20.71
2023-05-14T05:26:07.957Z,20.68
2023-05-14T05:31:11.354Z,20.58
2023-05-14T05:36:15.265Z,21.18
2023-05-14T05:41:20.470Z,21.26
2023-05-14T05:46:23.833Z,21.43
2023-05-14T05:51:27.500Z,21.64
2023-05-14T05:56:32.351Z,21.97
2023-05-14T06:01:35.964Z,22.28
2023-05-14T06:06:39.445Z,22.19
2023-05-14T06:11:44.400Z,22.20
2023-05-14T06:16:48.338Z,22.74
2023-05-14T06:21:52.095Z,22.83
2023-05-14T06:26:56.781Z,22.96
2023-05-14T06:32:04.027Z,23.36
2023-05-14T06:37:07.486Z,23.69
2023-05-14T06:42:12.217Z,23.85
2023-05-14T06:47:15.586Z,24.61
2023-05-14T06:52:18.952Z,24.72
2023-05-14T06:57:23.628Z,25.15
2023-05-14T07:02:27.058Z,25.35
2023-05-14T07:07:30.426Z,25.33
2023-05-14T07:12:35.192Z,25.38
2023-05-14T07:17:38.803Z,25.29
2023-05-14T07:22:42.171Z,25.66
2023-05-14T07:27:46.918Z,26.24
2023-05-14T07:32:50.633Z,26.65
2023-05-14T07:37:54.363Z,27.22
2023-05-14T07:42:59.277Z,27.40
2023-05-14T07:48:02.722Z,27.58
2023-05-14T07:53:06.156Z,26.88
2023-05-14T07:58:10.909Z,27.21
2023-05-14T08:03:14.872Z,27.70
2023-05-14T08:08:18.479Z,28.31
2023-05-14T08:13:23.259Z,27.71
2023-05-14T08:18:26.954Z,27.79
2023-05-14T08:23:30.340Z,28.25
2023-05-14T08:28:35.190Z,28.52
2023-05-14T08:33:38.592Z,29.15
2023-05-14T08:38:42.389Z,28.48
2023-05-14T08:43:53.448Z,29.08
2023-05-14T08:48:59.870Z,28.92
2023-05-14T08:54:04.768Z,28.75
2023-05-14T08:59:10.355Z,28.87
2023-05-14T09:04:15.860Z,28.98
2023-05-14T09:09:22.715Z,29.82
2023-05-14T09:14:30.229Z,28.87
2023-05-14T09:19:33.804Z,29.03
2023-05-14T09:24:38.692Z,29.96
2023-05-14T09:29:43.531Z,30.42
2023-05-14T09:34:47.111Z,31.01
2023-05-14T09:39:50.960Z,31.07
2023-05-14T09:44:56.024Z,31.38
2023-05-14T09:49:59.419Z,31.35
2023-05-14T09:55:02.896Z,32.07
2023-05-14T10:00:10.209Z,31.90
2023-05-14T10:05:15.854Z,31.45
2023-05-14T10:10:21.425Z,32.43
2023-05-14T10:15:32.043Z,33.29
2023-05-14T10:20:36.684Z,33.00
2023-05-14T10:25:42.922Z,32.55
2023-05-14T10:30:49.742Z,31.58
2023-05-14T10:35:57.622Z,31.98
2023-05-14T10:41:03.702Z,33.44
2023-05-14T10:46:11.061Z,32.89
2023-05-14T10:51:21.061Z,32.26
2023-05-14T10:56:26.240Z,33.29
2023-05-14T11:01:34.018Z,34.03
2023-05-14T11:06:40.141Z,34.30
2023-05-14T11:11:45.632Z,34.07
2023-05-14T11:16:51.952Z,34.64
2023-05-14T11:21:55.548Z,33.94
2023-05-14T11:26:58.996Z,34.15
2023-05-14T11:32:05.876Z,34.41
2023-05-14T11:37:10.735Z,33.19
2023-05-14T11:42:16.733Z,34.02
2023-05-14T11:47:22.549Z,33.82
2023-05-14T11:52:25.910Z,32.12
2023-05-14T11:57:29.320Z,31.86
2023-05-14T12:02:34.431Z,31.22
2023-05-14T12:07:38.141Z,31.66
2023-05-14T12:12:41.570Z,33.59
2023-05-14T12:17:50.921Z,33.63
2023-05-14T12:22:54.378Z,33.95
2023-05-14T12:27:57.809Z,34.75
2023-05-14T12:33:02.548Z,34.11
2023-05-14T12:38:06.219Z,33.46
2023-05-14T12:43:09.554Z,34.10
2023-05-14T12:48:14.453Z,34.66
2023-05-14T12:53:18.143Z,35.57
2023-05-14T12:58:21.589Z,35.60
2023-05-14T13:03:27.306Z,34.95
2023-05-14T13:08:31.209Z,35.57
2023-05-14T13:13:34.596Z,35.21
2023-05-14T13:18:39.374Z,34.19
2023-05-14T13:23:42.759Z,35.57
2023-05-14T13:28:46.558Z,34.71
2023-05-14T13:33:51.515Z,34.57
2023-05-14T13:38:54.961Z,35.48
2023-05-14T13:43:58.573Z,34.98
2023-05-14T13:49:03.306Z,34.23
2023-05-14T13:54:07.036Z,34.31
2023-05-14T13:59:11.089Z,32.27
2023-05-14T14:04:16.446Z,31.34
2023-05-14T14:09:19.844Z,28.84
2023-05-14T14:14:23.231Z,29.24
2023-05-14T14:19:28.148Z,28.45
2023-05-14T14:24:31.505Z,29.16
2023-05-14T14:29:35.664Z,28.96
2023-05-14T14:34:40.386Z,30.43
2023-05-14T14:39:43.804Z,31.33
2023-05-14T14:44:47.381Z,30.79
2023-05-14T14:49:52.326Z,29.85
2023-05-14T14:54:56.468Z,30.51
2023-05-14T15:00:01.495Z,30.50
2023-05-14T15:05:08.293Z,30.03
2023-05-14T15:10:11.996Z,29.99
2023-05-14T15:15:15.422Z,29.96
2023-05-14T15:20:20.248Z,29.98
2023-05-14T15:25:25.092Z,29.89
2023-05-14T15:30:28.832Z,30.59
2023-05-14T15:35:33.747Z,30.27
2023-05-14T15:40:37.327Z,30.60
2023-05-14T15:45:40.740Z,30.63
2023-05-14T15:50:48.984Z,30.61
2023-05-14T15:55:53.104Z,31.76
2023-05-14T16:00:56.471Z,32.12
2023-05-14T16:06:01.164Z,31.91
2023-05-14T16:11:05.458Z,31.41
2023-05-14T16:16:09.222Z,31.16
2023-05-14T16:21:14.150Z,31.69
2023-05-14T16:26:17.554Z,31.44
2023-05-14T16:31:21.021Z,31.69
2023-05-14T16:36:26.468Z,32.04
2023-05-14T16:41:29.969Z,32.08
2023-05-14T16:46:34.151Z,31.60
2023-05-14T16:51:42.970Z,31.78
2023-05-14T16:56:48.066Z,31.97
2023-05-14T17:01:51.836Z,31.48
2023-05-14T17:06:57.308Z,31.14
2023-05-14T17:12:01.025Z,31.27
2023-05-14T17:17:05.540Z,30.87
2023-05-14T17:22:10.955Z,30.84
2023-05-14T17:27:16.003Z,30.36
2023-05-14T17:32:20.284Z,30.61
2023-05-14T17:37:25.168Z,30.14
2023-05-14T17:42:28.554Z,29.93
2023-05-14T17:47:32.112Z,29.78
2023-05-14T17:52:37.669Z,29.47
2023-05-14T17:57:41.589Z,29.57
2023-05-14T18:02:45.115Z,29.49
2023-05-14T18:07:50.094Z,29.51
2023-05-14T18:12:53.827Z,29.64
2023-05-14T18:17:57.386Z,29.58
2023-05-14T18:23:02.429Z,29.02
2023-05-14T18:28:06.195Z,28.46
2023-05-14T18:33:09.624Z,28.64
2023-05-14T18:38:15.344Z,28.17
2023-05-14T18:43:19.934Z,28.00
2023-05-14T18:48:23.393Z,27.60
2023-05-14T18:53:29.234Z,27.45
2023-05-14T18:58:32.834Z,27.13
2023-05-14T19:03:36.348Z,27.03
2023-05-14T19:08:41.533Z,26.84
2023-05-14T19:13:46.701Z,26.33
2023-05-14T19:18:50.159Z,26.03
2023-05-14T19:23:55.009Z,25.92
2023-05-14T19:28:58.885Z,25.69
2023-05-14T19:34:02.484Z,25.47
2023-05-14T19:39:07.231Z,25.30
2023-05-14T19:44:10.567Z,25.21
2023-05-14T19:49:14.057Z,24.97
2023-05-14T19:54:19.200Z,24.97
2023-05-14T19:59:23.142Z,24.70
2023-05-14T20:04:26.588Z,24.50
2023-05-14T20:09:31.510Z,24.41
2023-05-14T20:14:35.041Z,24.25
2023-05-14T20:19:38.636Z,23.98
2023-05-14T20:24:44.215Z,23.94
2023-05-14T20:29:51.417Z,23.89
2023-05-14T20:34:54.951Z,23.77
2023-05-14T20:40:00.509Z,23.64
2023-05-14T20:45:05.281Z,23.67
2023-05-14T20:50:09.966Z,23.61
2023-05-14T20:55:15.094Z,23.61
2023-05-14T21:00:19.695Z,23.48
2023-05-14T21:05:23.769Z,23.29
2023-05-14T21:10:29.011Z,23.31
2023-05-14T21:15:32.685Z,23.09
2023-05-14T21:20:36.349Z,22.92
2023-05-14T21:25:41.342Z,22.78
2023-05-14T21:30:45.045Z,22.62
2023-05-14T21:35:48.685Z,22.54
2023-05-14T21:40:53.960Z,22.55
2023-05-14T21:45:59.142Z,22.39
2023-05-14T21:51:02.683Z,22.40
2023-05-14T21:56:10.947Z,22.33
2023-05-14T22:01:14.555Z,22.25
2023-05-14T22:06:18.134Z,22.10
2023-05-14T22:11:23.489Z,22.04
2023-05-14T22:16:27.414Z,21.64
2023-05-14T22:21:30.997Z,21.83
2023-05-14T22:26:35.969Z,21.64
2023-05-14T22:31:39.603Z,21.67
2023-05-14T22:36:43.210Z,21.62
2023-05-14T22:41:55.105Z,21.62
2023-05-14T22:46:59.258Z,21.47
2023-05-14T22:52:05.953Z,21.38
2023-05-14T22:57:11.071Z,21.20
2023-05-14T23:02:17.631Z,21.03
2023-05-14T23:07:26.117Z,20.91
2023-05-14T23:12:31.671Z,20.75
2023-05-14T23:17:35.229Z,20.40
2023-05-14T23:22:38.725Z,20.60
2023-05-14T23:27:43.687Z,20.71
2023-05-14T23:32:47.548Z,20.25
2023-05-14T23:37:51.151Z,20.33
2023-05-14T23:42:57.345Z,20.37
2023-05-14T23:48:02.677Z,20.34
2023-05-14T23:53:06.209Z,20.24
2023-05-14T23:58:12.801Z,20.18
